createdAt,value
2023-06-10T00:00:00.813Z,101495.41
2023-06-10T00:04:51.262Z,101495.59
2023-06-10T00:09:42.294Z,101492.72
2023-06-10T00:14:35.001Z,101491.59
2023-06-10T00:19:26.877Z,101497.81
2023-06-10T00:24:16.684Z,101495.81
2023-06-10T00:29:06.690Z,101504.09
2023-06-10T00:34:00.360Z,101499.66
2023-06-10T00:38:51.096Z,101502.56
2023-06-10T00:43:40.867Z,101499.50
2023-06-10T00:48:32.388Z,101497.88
2023-06-10T00:53:26.338Z,101509.41
2023-06-10T00:58:16.930Z,101509.47
2023-06-10T01:03:09.674Z,101501.63
2023-06-10T01:08:04.176Z,101509.53
2023-06-10T01:13:00.651Z,101502.09
2023-06-10T01:18:00.516Z,101505.53
2023-06-10T01:22:55.507Z,101504.38
2023-06-10T01:27:46.684Z,101501.44
2023-06-10T01:32:41.420Z,101502.47
2023-06-10T01:37:31.619Z,101509.16
2023-06-10T01:42:25.701Z,101501.81
2023-06-10T01:47:17.977Z,101501.50
2023-06-10T01:52:08.934Z,101502.34
2023-06-10T01:56:58.880Z,101494.00
2023-06-10T02:01:51.569Z,101494.19
2023-06-10T02:06:41.717Z,101503.75
2023-06-10T02:11:31.718Z,101503.91
2023-06-10T02:16:22.575Z,101492.28
2023-06-10T02:21:14.967Z,101504.91
2023-06-10T02:26:05.488Z,101500.47
2023-06-10T02:30:55.517Z,101499.97
2023-06-10T02:35:45.785Z,101510.91
2023-06-10T02:40:38.309Z,101511.22
2023-06-10T02:45:28.677Z,101511.72
2023-06-10T02:50:20.483Z,101509.69
2023-06-10T02:55:27.819Z,101513.78
2023-06-10T03:00:26.480Z,101503.03
2023-06-10T03:05:19.494Z,101507.97
2023-06-10T03:10:12.885Z,101511.06
2023-06-10T03:15:05.322Z,101513.78
2023-06-10T03:19:58.072Z,101511.03
2023-06-10T03:24:51.595Z,101507.78
2023-06-10T03:29:43.240Z,101513.91
2023-06-10T03:34:35.213Z,101522.94
2023-06-10T03:39:30.639Z,101513.88
2023-06-10T03:44:23.327Z,101528.72
2023-06-10T03:49:13.741Z,101544.31
2023-06-10T03:54:07.255Z,101539.19
2023-06-10T03:59:00.452Z,101544.94
2023-06-10T04:03:52.591Z,101543.91
2023-06-10T04:08:42.762Z,101550.88
2023-06-10T04:13:32.408Z,101551.06
2023-06-10T04:18:26.576Z,101558.19
2023-06-10T04:23:19.627Z,101557.44
2023-06-10T04:28:10.145Z,101558.41
2023-06-10T04:33:01.252Z,101565.19
2023-06-10T04:37:54.923Z,101554.75
2023-06-10T04:42:47.067Z,101567.84
2023-06-10T04:47:38.128Z,101574.03
2023-06-10T04:52:29.155Z,101580.84
2023-06-10T04:57:21.612Z,101573.69
2023-06-10T05:02:11.402Z,101580.31
2023-06-10T05:07:01.042Z,101583.19
2023-06-10T05:11:51.002Z,101586.59
2023-06-10T05:16:44.566Z,101581.88
2023-06-10T05:21:34.493Z,101577.81
2023-06-10T05:26:26.645Z,101582.25
2023-06-10T05:31:16.942Z,101575.06
2023-06-10T05:36:09.489Z,101575.75
2023-06-10T05:41:00.197Z,101576.63
2023-06-10T05:45:50.914Z,101590.09
2023-06-10T05:50:41.655Z,101588.03
2023-06-10T05:55:37.357Z,101582.97
2023-06-10T06:00:28.576Z,101578.75
2023-06-10T06:05:18.509Z,101576.56
2023-06-10T06:10:08.690Z,101581.53
2023-06-10T06:15:02.816Z,101589.22
2023-06-10T06:19:53.783Z,101584.13
2023-06-10T06:24:44.099Z,101589.78
2023-06-10T06:29:35.198Z,101583.84
2023-06-10T06:34:27.884Z,101591.34
2023-06-10T06:39:17.693Z,101582.56
2023-06-10T06:44:08.271Z,101590.09
2023-06-10T06:49:02.194Z,101598.81
2023-06-10T06:53:58.005Z,101600.00
2023-06-10T06:58:47.506Z,101602.75
2023-06-10T07:03:38.299Z,101608.94
2023-06-10T07:08:28.848Z,101608.25
2023-06-10T07:13:21.926Z,101621.25
2023-06-10T07:18:11.841Z,101609.50
2023-06-10T07:23:01.767Z,101610.34
2023-06-10T07:27:51.333Z,101606.63
2023-06-10T07:32:44.925Z,101613.84
2023-06-10T07:37:34.480Z,101613.50
2023-06-10T07:42:24.066Z,101615.72
2023-06-10T07:47:13.869Z,101619.16
2023-06-10T07:52:06.936Z,101614.00
2023-06-10T07:56:56.499Z,101623.22
2023-06-10T08:01:46.069Z,101617.88
2023-06-10T08:06:35.804Z,101618.59
2023-06-10T08:11:31.060Z,101618.97
2023-06-10T08:16:20.979Z,101608.75
2023-06-10T08:21:11.735Z,101615.41
2023-06-10T08:26:02.240Z,101629.31
2023-06-10T08:30:57.413Z,101633.63
2023-06-10T08:35:47.321Z,101629.44
2023-06-10T08:40:37.168Z,101634.91
2023-06-10T08:45:27.484Z,101636.63
2023-06-10T08:50:21.634Z,101619.00
2023-06-10T08:55:16.036Z,101622.06
2023-06-10T09:00:05.946Z,101634.28
2023-06-10T09:04:55.701Z,101629.25
2023-06-10T09:09:48.533Z,101633.88
2023-06-10T09:14:38.299Z,101624.75
2023-06-10T09:19:28.159Z,101632.88
2023-06-10T09:24:18.250Z,101637.84
2023-06-10T09:29:13.028Z,101633.81
2023-06-10T09:34:09.610Z,101634.25
2023-06-10T09:39:00.372Z,101638.44
2023-06-10T09:43:50.439Z,101635.66
2023-06-10T09:48:44.634Z,101639.81
2023-06-10T09:53:37.783Z,101632.69
2023-06-10T09:58:37.547Z,101635.56
2023-06-10T10:03:27.252Z,101625.69
2023-06-10T10:08:19.826Z,101628.28
2023-06-10T10:13:10.555Z,101618.66
2023-06-10T10:18:08.065Z,101622.94
2023-06-10T10:23:01.461Z,101618.13
2023-06-10T10:27:59.218Z,101620.38
2023-06-10T10:32:59.722Z,101612.50
2023-06-10T10:37:51.471Z,101615.56
2023-06-10T10:42:42.735Z,101615.09
2023-06-10T10:47:38.976Z,101606.81
2023-06-10T10:52:49.616Z,101612.88
2023-06-10T10:57:44.326Z,101591.03
2023-06-10T11:02:45.944Z,101600.34
2023-06-10T11:07:38.685Z,101585.28
2023-06-10T11:12:28.561Z,101590.25
2023-06-10T11:17:25.079Z,101596.06
2023-06-10T11:22:21.170Z,101598.34
2023-06-10T11:27:21.713Z,101590.16
2023-06-10T11:32:16.596Z,101585.72
2023-06-10T11:37:07.392Z,101573.50
2023-06-10T11:42:01.967Z,101577.00
2023-06-10T11:46:54.189Z,101573.75
2023-06-10T11:51:51.021Z,101572.00
2023-06-10T11:56:43.866Z,101562.28
2023-06-10T12:01:39.372Z,101574.72
2023-06-10T12:06:31.241Z,101566.25
2023-06-10T12:11:23.402Z,101565.78
2023-06-10T12:16:14.550Z,101555.06
2023-06-10T12:21:14.320Z,101557.84
2023-06-10T12:26:04.262Z,101535.78
2023-06-10T12:30:55.152Z,101558.69
2023-06-10T12:35:51.526Z,101560.63
2023-06-10T12:40:45.081Z,101563.16
2023-06-10T12:45:41.279Z,101561.69
2023-06-10T12:50:31.115Z,101553.13
2023-06-10T12:55:20.970Z,101552.78
2023-06-10T13:00:15.753Z,101542.03
2023-06-10T13:05:06.733Z,101545.44
2023-06-10T13:10:00.545Z,101540.81
2023-06-10T13:14:50.815Z,101541.78
2023-06-10T13:19:44.080Z,101535.78
2023-06-10T13:24:38.878Z,101519.22
2023-06-10T13:29:28.810Z,101518.34
2023-06-10T13:34:20.009Z,101516.16
2023-06-10T13:39:15.156Z,101505.38
2023-06-10T13:44:04.763Z,101496.97
2023-06-10T13:48:54.776Z,101501.31
2023-06-10T13:53:44.340Z,101495.28
2023-06-10T13:58:40.151Z,101502.56
2023-06-10T14:03:32.333Z,101499.41
2023-06-10T14:08:22.445Z,101496.91
2023-06-10T14:13:15.604Z,101502.69
2023-06-10T14:18:09.498Z,101481.78
2023-06-10T14:23:01.045Z,101486.25
2023-06-10T14:27:51.747Z,101493.50
2023-06-10T14:32:41.468Z,101494.34
2023-06-10T14:37:33.960Z,101499.53
2023-06-10T14:49:21.081Z,101487.16
2023-06-10T14:54:10.774Z,101481.88
2023-06-10T14:59:00.514Z,101482.47
2023-06-10T15:04:48.687Z,101474.16
2023-06-10T15:10:49.750Z,101472.34
2023-06-10T15:15:43.731Z,101465.13
2023-06-10T15:20:36.166Z,101477.44
2023-06-10T15:25:31.334Z,101457.13
2023-06-10T15:30:23.970Z,101455.22
2023-06-10T15:35:13.775Z,101460.63
2023-06-10T15:40:03.654Z,101459.19
2023-06-10T15:44:53.902Z,101456.31
2023-06-10T15:49:46.499Z,101440.34
2023-06-10T15:54:36.503Z,101439.63
2023-06-10T15:59:26.352Z,101430.31
2023-06-10T16:04:16.500Z,101435.16
2023-06-10T16:09:09.906Z,101431.53
2023-06-10T16:13:59.911Z,101427.47
2023-06-10T16:18:49.908Z,101419.59
2023-06-10T16:23:40.277Z,101401.88
2023-06-10T16:28:36.219Z,101417.28
2023-06-10T16:33:26.521Z,101382.31
2023-06-10T16:38:17.526Z,101417.66
2023-06-10T16:43:07.754Z,101410.31
2023-06-10T16:48:00.344Z,101416.22
2023-06-10T16:52:50.186Z,101413.94
2023-06-10T16:57:40.037Z,101410.31
2023-06-10T17:02:30.186Z,101404.81
2023-06-10T17:07:22.996Z,101407.47
2023-06-10T17:12:13.848Z,101411.56
2023-06-10T17:17:04.321Z,101388.16
2023-06-10T17:21:54.298Z,101402.38
2023-06-10T17:26:46.909Z,101391.84
2023-06-10T17:31:37.336Z,101407.50
2023-06-10T17:36:28.634Z,101358.34
2023-06-10T17:41:18.924Z,101392.31
2023-06-10T17:46:11.713Z,101420.50
2023-06-10T17:51:02.355Z,101426.91
2023-06-10T17:55:53.677Z,101416.50
2023-06-10T18:00:44.070Z,101427.44
2023-06-10T18:05:37.427Z,101437.59
2023-06-10T18:10:29.311Z,101441.47
2023-06-10T18:15:19.682Z,101433.56
2023-06-10T18:20:11.200Z,101432.38
2023-06-10T18:25:07.817Z,101419.31
2023-06-10T18:29:59.506Z,101432.97
2023-06-10T18:34:51.255Z,101430.50
2023-06-10T18:39:41.166Z,101441.56
2023-06-10T18:44:36.233Z,101443.09
2023-06-10T18:49:26.323Z,101447.25
2023-06-10T18:54:19.583Z,101446.28
2023-06-10T18:59:10.362Z,101430.06
2023-06-10T19:04:04.060Z,101451.75
2023-06-10T19:08:54.334Z,101465.16
2023-06-10T19:13:44.535Z,101469.91
2023-06-10T19:18:34.684Z,101474.44
2023-06-10T19:23:27.508Z,101470.00
2023-06-10T19:28:17.438Z,101475.34
2023-06-10T19:33:10.925Z,101496.63
2023-06-10T19:38:01.816Z,101491.09
2023-06-10T19:42:54.851Z,101481.78
2023-06-10T19:47:44.765Z,101502.59
2023-06-10T19:52:35.099Z,101507.09
2023-06-10T19:57:24.936Z,101502.25
2023-06-10T20:02:17.806Z,101508.19
2023-06-10T20:07:11.319Z,101513.69
2023-06-10T20:12:04.584Z,101515.16
2023-06-10T20:16:55.330Z,101498.19
2023-06-10T20:21:47.785Z,101525.53
2023-06-10T20:26:38.010Z,101523.84
2023-06-10T20:31:28.728Z,101524.25
2023-06-10T20:36:20.221Z,101527.38
2023-06-10T20:41:12.728Z,101542.88
2023-06-10T20:46:02.663Z,101537.38
2023-06-10T20:50:53.003Z,101544.94
2023-06-10T20:55:45.033Z,101549.78
2023-06-10T21:00:37.647Z,101554.59
2023-06-10T21:05:27.458Z,101556.69
2023-06-10T21:10:18.976Z,101556.19
2023-06-10T21:15:12.391Z,101557.84
2023-06-10T21:20:05.676Z,101562.38
2023-06-10T21:24:56.019Z,101567.44
2023-06-10T21:29:45.967Z,101560.16
2023-06-10T21:34:36.306Z,101548.59
2023-06-10T21:39:29.067Z,101565.44
2023-06-10T21:44:18.979Z,101568.59
2023-06-10T21:49:09.011Z,101561.25
2023-06-10T21:53:59.165Z,101558.72
2023-06-10T21:58:51.672Z,101567.16
2023-06-10T22:03:41.574Z,101554.19
2023-06-10T22:08:31.694Z,101575.31
2023-06-10T22:13:21.827Z,101538.38
2023-06-10T22:18:14.945Z,101551.84
2023-06-10T22:23:04.919Z,101556.63
2023-06-10T22:27:54.874Z,101553.53
2023-06-10T22:32:44.779Z,101566.34
2023-06-10T22:37:37.860Z,101565.13
2023-06-10T22:42:27.702Z,101558.69
2023-06-10T22:47:17.794Z,101554.38
2023-06-10T22:52:08.642Z,101546.44
2023-06-10T22:57:01.162Z,101553.94
2023-06-10T23:01:51.051Z,101549.19
2023-06-10T23:06:41.319Z,101536.81
2023-06-10T23:11:31.328Z,101548.53
2023-06-10T23:16:23.924Z,101537.38
2023-06-10T23:21:16.152Z,101545.38
2023-06-10T23:26:06.819Z,101541.06
2023-06-10T23:30:57.059Z,101543.41
2023-06-10T23:35:50.042Z,101535.00
2023-06-10T23:40:41.114Z,101539.78
2023-06-10T23:45:31.606Z,101541.91
2023-06-10T23:50:21.672Z,101545.75
2023-06-10T23:55:14.727Z,101543.41
